sensor_id;sensor_type;location;lat;lon;timestamp;P1;durP1;ratioP1;P2;durP2;ratioP2
6101;SDS011;3081;50.584;7.032;2023-05-23T00:01:37;37.13;;;18.60;;
6101;SDS011;3081;50.584;7.032;2023-05-23T00:04:04;49.50;;;24.33;;
6101;SDS011;3081;50.584;7.032;2023-05-23T00:06:32;43.57;;;23.70;;
6101;SDS011;3081;50.584;7.032;2023-05-23T00:09:00;41.80;;;22.67;;
6101;SDS011;3081;50.584;7.032;2023-05-23T00:11:28;47.03;;;25.20;;
6101;SDS011;3081;50.584;7.032;2023-05-23T00:13:55;54.00;;;24.37;;
6101;SDS011;3081;50.584;7.032;2023-05-23T00:16:25;46.50;;;22.43;;
6101;SDS011;3081;50.584;7.032;2023-05-23T00:18:52;33.70;;;19.10;;
6101;SDS011;3081;50.584;7.032;2023-05-23T00:21:21;39.93;;;22.17;;
6101;SDS011;3081;50.584;7.032;2023-05-23T00:23:48;39.07;;;19.40;;
6101;SDS011;3081;50.584;7.032;2023-05-23T00:26:15;28.87;;;17.50;;
6101;SDS011;3081;50.584;7.032;2023-05-23T00:28:43;45.87;;;23.13;;
6101;SDS011;3081;50.584;7.032;2023-05-23T00:31:10;28.60;;;13.70;;
6101;SDS011;3081;50.584;7.032;2023-05-23T00:33:37;31.90;;;16.23;;
6101;SDS011;3081;50.584;7.032;2023-05-23T00:36:04;29.93;;;14.20;;
6101;SDS011;3081;50.584;7.032;2023-05-23T00:38:31;32.13;;;20.10;;
6101;SDS011;3081;50.584;7.032;2023-05-23T00:40:58;37.27;;;18.50;;
6101;SDS011;3081;50.584;7.032;2023-05-23T00:43:25;27.93;;;16.23;;
6101;SDS011;3081;50.584;7.032;2023-05-23T00:45:54;20.50;;;10.70;;
6101;SDS011;3081;50.584;7.032;2023-05-23T00:48:21;33.50;;;15.93;;
6101;SDS011;3081;50.584;7.032;2023-05-23T00:50:49;28.63;;;16.57;;
6101;SDS011;3081;50.584;7.032;2023-05-23T00:53:16;26.07;;;15.43;;
6101;SDS011;3081;50.584;7.032;2023-05-23T00:55:43;22.90;;;13.67;;
6101;SDS011;3081;50.584;7.032;2023-05-23T00:58:11;27.33;;;8.57;;
6101;SDS011;3081;50.584;7.032;2023-05-23T01:00:39;21.97;;;11.23;;
6101;SDS011;3081;50.584;7.032;2023-05-23T01:03:10;21.73;;;11.87;;
6101;SDS011;3081;50.584;7.032;2023-05-23T01:05:42;22.93;;;14.13;;
6101;SDS011;3081;50.584;7.032;2023-05-23T01:08:09;21.93;;;12.83;;
6101;SDS011;3081;50.584;7.032;2023-05-23T01:10:36;26.40;;;12.30;;
6101;SDS011;3081;50.584;7.032;2023-05-23T01:13:06;14.37;;;7.13;;
6101;SDS011;3081;50.584;7.032;2023-05-23T01:15:44;24.73;;;13.13;;
6101;SDS011;3081;50.584;7.032;2023-05-23T01:18:20;21.50;;;13.23;;
6101;SDS011;3081;50.584;7.032;2023-05-23T01:20:53;25.07;;;13.97;;
6101;SDS011;3081;50.584;7.032;2023-05-23T01:23:28;20.37;;;12.00;;
6101;SDS011;3081;50.584;7.032;2023-05-23T01:26:21;24.07;;;13.20;;
6101;SDS011;3081;50.584;7.032;2023-05-23T01:29:01;25.80;;;15.23;;
6101;SDS011;3081;50.584;7.032;2023-05-23T01:31:34;26.10;;;15.77;;
6101;SDS011;3081;50.584;7.032;2023-05-23T01:34:04;27.80;;;14.30;;
6101;SDS011;3081;50.584;7.032;2023-05-23T01:36:33;31.53;;;13.37;;
6101;SDS011;3081;50.584;7.032;2023-05-23T01:39:00;26.00;;;14.97;;
6101;SDS011;3081;50.584;7.032;2023-05-23T01:41:27;30.77;;;16.80;;
6101;SDS011;3081;50.584;7.032;2023-05-23T01:43:54;21.80;;;12.93;;
6101;SDS011;3081;50.584;7.032;2023-05-23T01:46:23;28.23;;;16.47;;
6101;SDS011;3081;50.584;7.032;2023-05-23T01:48:51;28.57;;;15.53;;
6101;SDS011;3081;50.584;7.032;2023-05-23T01:51:20;25.67;;;13.57;;
6101;SDS011;3081;50.584;7.032;2023-05-23T01:53:48;32.90;;;17.20;;
6101;SDS011;3081;50.584;7.032;2023-05-23T01:56:16;33.00;;;19.17;;
6101;SDS011;3081;50.584;7.032;2023-05-23T01:58:43;35.73;;;17.43;;
6101;SDS011;3081;50.584;7.032;2023-05-23T02:01:10;32.80;;;16.67;;
6101;SDS011;3081;50.584;7.032;2023-05-23T02:03:39;36.53;;;21.70;;
6101;SDS011;3081;50.584;7.032;2023-05-23T02:06:06;23.70;;;12.83;;
6101;SDS011;3081;50.584;7.032;2023-05-23T02:08:33;34.43;;;17.30;;
6101;SDS011;3081;50.584;7.032;2023-05-23T02:11:00;33.43;;;19.17;;
6101;SDS011;3081;50.584;7.032;2023-05-23T02:13:27;31.73;;;18.23;;
6101;SDS011;3081;50.584;7.032;2023-05-23T02:15:54;31.77;;;18.90;;
6101;SDS011;3081;50.584;7.032;2023-05-23T02:18:21;36.93;;;19.80;;
6101;SDS011;3081;50.584;7.032;2023-05-23T02:20:51;32.10;;;18.23;;
6101;SDS011;3081;50.584;7.032;2023-05-23T02:23:18;32.63;;;17.87;;
6101;SDS011;3081;50.584;7.032;2023-05-23T02:25:45;30.10;;;17.07;;
6101;SDS011;3081;50.584;7.032;2023-05-23T02:28:12;30.90;;;14.77;;
6101;SDS011;3081;50.584;7.032;2023-05-23T02:30:39;31.10;;;17.97;;
6101;SDS011;3081;50.584;7.032;2023-05-23T02:33:06;23.67;;;13.50;;
6101;SDS011;3081;50.584;7.032;2023-05-23T02:35:33;24.97;;;15.23;;
6101;SDS011;3081;50.584;7.032;2023-05-23T02:38:01;28.07;;;17.27;;
6101;SDS011;3081;50.584;7.032;2023-05-23T02:40:28;23.90;;;15.17;;
6101;SDS011;3081;50.584;7.032;2023-05-23T02:42:55;23.73;;;13.90;;
6101;SDS011;3081;50.584;7.032;2023-05-23T02:45:22;28.07;;;17.40;;
6101;SDS011;3081;50.584;7.032;2023-05-23T02:47:49;24.47;;;15.83;;
6101;SDS011;3081;50.584;7.032;2023-05-23T02:50:16;20.47;;;11.40;;
6101;SDS011;3081;50.584;7.032;2023-05-23T02:52:43;17.80;;;10.70;;
6101;SDS011;3081;50.584;7.032;2023-05-23T02:55:11;20.23;;;12.07;;
6101;SDS011;3081;50.584;7.032;2023-05-23T02:57:38;17.07;;;9.50;;
6101;SDS011;3081;50.584;7.032;2023-05-23T03:00:05;15.73;;;9.23;;
6101;SDS011;3081;50.584;7.032;2023-05-23T03:02:34;18.30;;;10.50;;
6101;SDS011;3081;50.584;7.032;2023-05-23T03:05:01;13.13;;;7.97;;
6101;SDS011;3081;50.584;7.032;2023-05-23T03:07:28;13.00;;;7.67;;
6101;SDS011;3081;50.584;7.032;2023-05-23T03:09:58;12.63;;;7.70;;
6101;SDS011;3081;50.584;7.032;2023-05-23T03:12:27;11.40;;;6.77;;
6101;SDS011;3081;50.584;7.032;2023-05-23T03:14:54;14.20;;;10.00;;
6101;SDS011;3081;50.584;7.032;2023-05-23T03:17:23;15.77;;;7.80;;
6101;SDS011;3081;50.584;7.032;2023-05-23T03:19:51;11.70;;;8.00;;
6101;SDS011;3081;50.584;7.032;2023-05-23T03:22:18;14.60;;;9.10;;
6101;SDS011;3081;50.584;7.032;2023-05-23T03:24:44;14.37;;;8.00;;
6101;SDS011;3081;50.584;7.032;2023-05-23T03:27:11;12.40;;;7.47;;
6101;SDS011;3081;50.584;7.032;2023-05-23T03:29:40;11.47;;;7.60;;
6101;SDS011;3081;50.584;7.032;2023-05-23T03:32:07;14.00;;;7.20;;
6101;SDS011;3081;50.584;7.032;2023-05-23T03:34:33;10.47;;;6.70;;
6101;SDS011;3081;50.584;7.032;2023-05-23T03:37:00;9.60;;;5.97;;
6101;SDS011;3081;50.584;7.032;2023-05-23T03:39:28;9.00;;;5.47;;
6101;SDS011;3081;50.584;7.032;2023-05-23T03:41:55;13.87;;;8.03;;
6101;SDS011;3081;50.584;7.032;2023-05-23T03:44:22;7.80;;;4.53;;
6101;SDS011;3081;50.584;7.032;2023-05-23T03:46:50;9.07;;;5.30;;
6101;SDS011;3081;50.584;7.032;2023-05-23T03:49:17;9.13;;;3.80;;
6101;SDS011;3081;50.584;7.032;2023-05-23T03:51:44;10.57;;;6.03;;
6101;SDS011;3081;50.584;7.032;2023-05-23T03:54:11;12.00;;;7.03;;
6101;SDS011;3081;50.584;7.032;2023-05-23T03:56:38;10.77;;;6.53;;
6101;SDS011;3081;50.584;7.032;2023-05-23T03:59:05;6.93;;;4.17;;
6101;SDS011;3081;50.584;7.032;2023-05-23T04:01:31;8.73;;;5.60;;
6101;SDS011;3081;50.584;7.032;2023-05-23T04:04:00;8.87;;;5.00;;
6101;SDS011;3081;50.584;7.032;2023-05-23T04:06:27;9.00;;;4.80;;
6101;SDS011;3081;50.584;7.032;2023-05-23T04:08:55;12.17;;;5.63;;
6101;SDS011;3081;50.584;7.032;2023-05-23T04:11:22;10.20;;;6.07;;
6101;SDS011;3081;50.584;7.032;2023-05-23T04:13:49;10.80;;;7.43;;
6101;SDS011;3081;50.584;7.032;2023-05-23T04:16:17;12.27;;;6.97;;
6101;SDS011;3081;50.584;7.032;2023-05-23T04:18:47;13.27;;;7.07;;
6101;SDS011;3081;50.584;7.032;2023-05-23T04:21:17;9.53;;;4.40;;
6101;SDS011;3081;50.584;7.032;2023-05-23T04:23:44;11.73;;;7.40;;
6101;SDS011;3081;50.584;7.032;2023-05-23T04:26:11;12.10;;;7.73;;
6101;SDS011;3081;50.584;7.032;2023-05-23T04:28:38;12.13;;;6.20;;
6101;SDS011;3081;50.584;7.032;2023-05-23T04:31:05;13.80;;;8.30;;
6101;SDS011;3081;50.584;7.032;2023-05-23T04:33:32;10.57;;;5.57;;
6101;SDS011;3081;50.584;7.032;2023-05-23T04:35:59;12.73;;;6.93;;
6101;SDS011;3081;50.584;7.032;2023-05-23T04:38:27;15.07;;;9.00;;
6101;SDS011;3081;50.584;7.032;2023-05-23T04:40:54;13.40;;;6.37;;
6101;SDS011;3081;50.584;7.032;2023-05-23T04:43:22;13.30;;;6.97;;
6101;SDS011;3081;50.584;7.032;2023-05-23T04:45:50;16.60;;;11.00;;
6101;SDS011;3081;50.584;7.032;2023-05-23T04:48:18;16.63;;;9.57;;
6101;SDS011;3081;50.584;7.032;2023-05-23T04:50:46;20.20;;;11.97;;
6101;SDS011;3081;50.584;7.032;2023-05-23T04:53:15;16.73;;;10.20;;
6101;SDS011;3081;50.584;7.032;2023-05-23T04:55:43;20.10;;;11.80;;
6101;SDS011;3081;50.584;7.032;2023-05-23T04:58:10;18.67;;;11.27;;
6101;SDS011;3081;50.584;7.032;2023-05-23T05:00:37;13.80;;;8.37;;
6101;SDS011;3081;50.584;7.032;2023-05-23T05:03:04;23.43;;;15.03;;
6101;SDS011;3081;50.584;7.032;2023-05-23T05:05:33;22.60;;;15.33;;
6101;SDS011;3081;50.584;7.032;2023-05-23T05:08:00;18.67;;;10.40;;
6101;SDS011;3081;50.584;7.032;2023-05-23T05:10:27;15.20;;;8.00;;
6101;SDS011;3081;50.584;7.032;2023-05-23T05:12:55;23.80;;;13.37;;
6101;SDS011;3081;50.584;7.032;2023-05-23T05:15:22;24.60;;;14.47;;
6101;SDS011;3081;50.584;7.032;2023-05-23T05:17:50;25.93;;;14.30;;
6101;SDS011;3081;50.584;7.032;2023-05-23T05:20:16;15.53;;;8.63;;
6101;SDS011;3081;50.584;7.032;2023-05-23T05:22:44;14.93;;;8.87;;
6101;SDS011;3081;50.584;7.032;2023-05-23T05:25:11;28.60;;;15.20;;
6101;SDS011;3081;50.584;7.032;2023-05-23T05:27:38;20.73;;;13.07;;
6101;SDS011;3081;50.584;7.032;2023-05-23T05:30:07;21.33;;;11.97;;
6101;SDS011;3081;50.584;7.032;2023-05-23T05:32:35;20.57;;;12.87;;
6101;SDS011;3081;50.584;7.032;2023-05-23T05:35:02;21.30;;;10.10;;
6101;SDS011;3081;50.584;7.032;2023-05-23T05:37:29;14.73;;;10.03;;
6101;SDS011;3081;50.584;7.032;2023-05-23T05:39:56;18.50;;;12.50;;
6101;SDS011;3081;50.584;7.032;2023-05-23T05:42:23;18.60;;;10.30;;
6101;SDS011;3081;50.584;7.032;2023-05-23T05:44:50;15.70;;;8.97;;
6101;SDS011;3081;50.584;7.032;2023-05-23T05:47:18;11.27;;;7.33;;
6101;SDS011;3081;50.584;7.032;2023-05-23T05:49:46;16.30;;;9.33;;
6101;SDS011;3081;50.584;7.032;2023-05-23T05:52:13;16.37;;;6.97;;
6101;SDS011;3081;50.584;7.032;2023-05-23T05:54:40;16.30;;;7.10;;
6101;SDS011;3081;50.584;7.032;2023-05-23T05:57:06;17.97;;;11.30;;
6101;SDS011;3081;50.584;7.032;2023-05-23T05:59:33;15.67;;;9.00;;
6101;SDS011;3081;50.584;7.032;2023-05-23T06:02:00;14.67;;;9.10;;
6101;SDS011;3081;50.584;7.032;2023-05-23T06:04:29;16.50;;;9.53;;
6101;SDS011;3081;50.584;7.032;2023-05-23T06:06:56;19.57;;;9.27;;
6101;SDS011;3081;50.584;7.032;2023-05-23T06:09:23;15.67;;;9.40;;
6101;SDS011;3081;50.584;7.032;2023-05-23T06:11:50;15.50;;;10.30;;
6101;SDS011;3081;50.584;7.032;2023-05-23T06:14:16;16.40;;;11.60;;
6101;SDS011;3081;50.584;7.032;2023-05-23T06:16:43;19.50;;;10.40;;
6101;SDS011;3081;50.584;7.032;2023-05-23T06:19:10;9.30;;;5.27;;
6101;SDS011;3081;50.584;7.032;2023-05-23T06:21:38;18.50;;;10.23;;
6101;SDS011;3081;50.584;7.032;2023-05-23T06:24:05;15.30;;;9.90;;
6101;SDS011;3081;50.584;7.032;2023-05-23T06:26:32;17.60;;;9.10;;
6101;SDS011;3081;50.584;7.032;2023-05-23T06:29:01;17.37;;;10.70;;
6101;SDS011;3081;50.584;7.032;2023-05-23T06:31:28;13.47;;;9.03;;
6101;SDS011;3081;50.584;7.032;2023-05-23T06:33:55;18.57;;;9.47;;
6101;SDS011;3081;50.584;7.032;2023-05-23T06:36:22;16.33;;;10.85;;
6101;SDS011;3081;50.584;7.032;2023-05-23T06:38:50;14.93;;;8.57;;
6101;SDS011;3081;50.584;7.032;2023-05-23T06:41:17;14.03;;;6.60;;
6101;SDS011;3081;50.584;7.032;2023-05-23T06:43:44;14.03;;;8.33;;
6101;SDS011;3081;50.584;7.032;2023-05-23T06:46:11;13.67;;;6.90;;
6101;SDS011;3081;50.584;7.032;2023-05-23T06:48:38;15.27;;;9.23;;
6101;SDS011;3081;50.584;7.032;2023-05-23T06:51:05;11.87;;;6.97;;
6101;SDS011;3081;50.584;7.032;2023-05-23T06:53:32;13.60;;;7.00;;
6101;SDS011;3081;50.584;7.032;2023-05-23T06:56:00;14.10;;;6.07;;
6101;SDS011;3081;50.584;7.032;2023-05-23T06:58:27;13.53;;;6.97;;
6101;SDS011;3081;50.584;7.032;2023-05-23T07:00:54;15.60;;;6.47;;
6101;SDS011;3081;50.584;7.032;2023-05-23T07:03:21;12.47;;;8.20;;
6101;SDS011;3081;50.584;7.032;2023-05-23T07:05:47;16.30;;;8.60;;
6101;SDS011;3081;50.584;7.032;2023-05-23T07:08:15;16.27;;;7.70;;
6101;SDS011;3081;50.584;7.032;2023-05-23T07:10:42;16.73;;;7.27;;
6101;SDS011;3081;50.584;7.032;2023-05-23T07:13:10;14.03;;;8.17;;
6101;SDS011;3081;50.584;7.032;2023-05-23T07:15:37;16.13;;;6.77;;
6101;SDS011;3081;50.584;7.032;2023-05-23T07:18:04;14.80;;;5.47;;
6101;SDS011;3081;50.584;7.032;2023-05-23T07:20:31;12.80;;;6.37;;
6101;SDS011;3081;50.584;7.032;2023-05-23T07:22:58;12.00;;;7.83;;
6101;SDS011;3081;50.584;7.032;2023-05-23T07:25:25;17.37;;;9.27;;
6101;SDS011;3081;50.584;7.032;2023-05-23T07:27:52;16.40;;;8.37;;
6101;SDS011;3081;50.584;7.032;2023-05-23T07:30:21;14.20;;;7.47;;
6101;SDS011;3081;50.584;7.032;2023-05-23T07:32:48;13.53;;;8.70;;
6101;SDS011;3081;50.584;7.032;2023-05-23T07:35:16;19.17;;;8.27;;
6101;SDS011;3081;50.584;7.032;2023-05-23T07:37:48;12.23;;;6.93;;
6101;SDS011;3081;50.584;7.032;2023-05-23T07:40:15;18.87;;;8.13;;
6101;SDS011;3081;50.584;7.032;2023-05-23T07:42:41;13.97;;;8.17;;
6101;SDS011;3081;50.584;7.032;2023-05-23T07:45:09;14.73;;;9.17;;
6101;SDS011;3081;50.584;7.032;2023-05-23T07:47:38;17.00;;;7.30;;
6101;SDS011;3081;50.584;7.032;2023-05-23T07:50:05;14.30;;;6.93;;
6101;SDS011;3081;50.584;7.032;2023-05-23T07:52:33;16.30;;;9.80;;
6101;SDS011;3081;50.584;7.032;2023-05-23T07:55:00;14.40;;;8.90;;
6101;SDS011;3081;50.584;7.032;2023-05-23T07:57:27;19.20;;;11.53;;
6101;SDS011;3081;50.584;7.032;2023-05-23T07:59:54;12.10;;;6.70;;
6101;SDS011;3081;50.584;7.032;2023-05-23T08:02:21;15.70;;;9.47;;
6101;SDS011;3081;50.584;7.032;2023-05-23T08:04:49;15.17;;;8.00;;
6101;SDS011;3081;50.584;7.032;2023-05-23T08:07:17;14.27;;;9.30;;
6101;SDS011;3081;50.584;7.032;2023-05-23T08:09:45;13.27;;;8.30;;
6101;SDS011;3081;50.584;7.032;2023-05-23T08:12:12;12.20;;;6.43;;
6101;SDS011;3081;50.584;7.032;2023-05-23T08:14:39;16.33;;;9.37;;
6101;SDS011;3081;50.584;7.032;2023-05-23T08:17:06;12.77;;;7.77;;
6101;SDS011;3081;50.584;7.032;2023-05-23T08:19:33;17.13;;;9.40;;
6101;SDS011;3081;50.584;7.032;2023-05-23T08:22:01;15.70;;;8.43;;
6101;SDS011;3081;50.584;7.032;2023-05-23T08:24:29;14.40;;;9.30;;
6101;SDS011;3081;50.584;7.032;2023-05-23T08:26:58;16.93;;;10.13;;
6101;SDS011;3081;50.584;7.032;2023-05-23T08:29:25;12.33;;;5.90;;
6101;SDS011;3081;50.584;7.032;2023-05-23T08:31:52;17.13;;;8.97;;
6101;SDS011;3081;50.584;7.032;2023-05-23T08:34:19;14.40;;;7.47;;
6101;SDS011;3081;50.584;7.032;2023-05-23T08:36:45;13.00;;;6.47;;
6101;SDS011;3081;50.584;7.032;2023-05-23T08:39:14;14.53;;;9.80;;
6101;SDS011;3081;50.584;7.032;2023-05-23T08:41:41;12.17;;;7.40;;
6101;SDS011;3081;50.584;7.032;2023-05-23T08:44:08;13.17;;;8.17;;
6101;SDS011;3081;50.584;7.032;2023-05-23T08:46:35;12.70;;;7.33;;
6101;SDS011;3081;50.584;7.032;2023-05-23T08:49:08;17.40;;;10.67;;
6101;SDS011;3081;50.584;7.032;2023-05-23T08:51:38;16.50;;;9.80;;
6101;SDS011;3081;50.584;7.032;2023-05-23T08:54:08;16.60;;;7.10;;
6101;SDS011;3081;50.584;7.032;2023-05-23T08:56:38;13.73;;;6.60;;
6101;SDS011;3081;50.584;7.032;2023-05-23T08:59:08;11.63;;;6.90;;
6101;SDS011;3081;50.584;7.032;2023-05-23T09:01:35;14.60;;;6.50;;
6101;SDS011;3081;50.584;7.032;2023-05-23T09:04:03;18.57;;;8.50;;
6101;SDS011;3081;50.584;7.032;2023-05-23T09:06:31;12.73;;;7.07;;
6101;SDS011;3081;50.584;7.032;2023-05-23T09:08:58;12.63;;;6.83;;
6101;SDS011;3081;50.584;7.032;2023-05-23T09:11:25;14.60;;;7.63;;
6101;SDS011;3081;50.584;7.032;2023-05-23T09:13:53;12.60;;;5.53;;
6101;SDS011;3081;50.584;7.032;2023-05-23T09:16:21;15.90;;;8.43;;
6101;SDS011;3081;50.584;7.032;2023-05-23T09:18:48;15.00;;;8.83;;
6101;SDS011;3081;50.584;7.032;2023-05-23T09:21:15;16.17;;;9.00;;
6101;SDS011;3081;50.584;7.032;2023-05-23T09:23:42;12.40;;;7.00;;
6101;SDS011;3081;50.584;7.032;2023-05-23T09:26:09;12.27;;;7.50;;
6101;SDS011;3081;50.584;7.032;2023-05-23T09:28:38;14.70;;;8.73;;
6101;SDS011;3081;50.584;7.032;2023-05-23T09:31:08;15.80;;;6.80;;
6101;SDS011;3081;50.584;7.032;2023-05-23T09:33:38;12.30;;;7.13;;
6101;SDS011;3081;50.584;7.032;2023-05-23T09:36:06;12.17;;;5.67;;
6101;SDS011;3081;50.584;7.032;2023-05-23T09:38:36;12.57;;;7.70;;
6101;SDS011;3081;50.584;7.032;2023-05-23T09:41:03;16.40;;;8.83;;
6101;SDS011;3081;50.584;7.032;2023-05-23T09:43:30;13.63;;;7.07;;
6101;SDS011;3081;50.584;7.032;2023-05-23T09:45:59;16.40;;;8.50;;
6101;SDS011;3081;50.584;7.032;2023-05-23T09:48:31;12.43;;;6.90;;
6101;SDS011;3081;50.584;7.032;2023-05-23T09:50:58;17.27;;;8.70;;
6101;SDS011;3081;50.584;7.032;2023-05-23T09:53:28;20.47;;;10.37;;
6101;SDS011;3081;50.584;7.032;2023-05-23T09:55:55;14.70;;;9.37;;
6101;SDS011;3081;50.584;7.032;2023-05-23T09:58:25;18.20;;;8.40;;
6101;SDS011;3081;50.584;7.032;2023-05-23T10:00:54;13.73;;;7.23;;
6101;SDS011;3081;50.584;7.032;2023-05-23T10:03:26;14.93;;;8.30;;
6101;SDS011;3081;50.584;7.032;2023-05-23T10:06:01;17.73;;;10.43;;
6101;SDS011;3081;50.584;7.032;2023-05-23T10:08:35;23.73;;;11.20;;
6101;SDS011;3081;50.584;7.032;2023-05-23T10:14:13;14.40;;;7.40;;
6101;SDS011;3081;50.584;7.032;2023-05-23T10:16:43;11.90;;;6.90;;
6101;SDS011;3081;50.584;7.032;2023-05-23T10:19:22;17.20;;;7.47;;
6101;SDS011;3081;50.584;7.032;2023-05-23T10:21:53;15.83;;;7.10;;
6101;SDS011;3081;50.584;7.032;2023-05-23T10:24:24;14.20;;;7.03;;
6101;SDS011;3081;50.584;7.032;2023-05-23T10:26:51;16.07;;;6.07;;
6101;SDS011;3081;50.584;7.032;2023-05-23T10:29:19;16.10;;;6.87;;
6101;SDS011;3081;50.584;7.032;2023-05-23T10:31:47;12.10;;;8.00;;
6101;SDS011;3081;50.584;7.032;2023-05-23T10:34:16;14.70;;;9.07;;
6101;SDS011;3081;50.584;7.032;2023-05-23T10:36:54;20.37;;;7.40;;
6101;SDS011;3081;50.584;7.032;2023-05-23T10:39:44;15.10;;;8.57;;
6101;SDS011;3081;50.584;7.032;2023-05-23T10:42:18;14.87;;;8.97;;
6101;SDS011;3081;50.584;7.032;2023-05-23T10:44:53;15.97;;;7.80;;
6101;SDS011;3081;50.584;7.032;2023-05-23T10:47:40;19.53;;;13.17;;
6101;SDS011;3081;50.584;7.032;2023-05-23T10:50:08;14.70;;;7.90;;
6101;SDS011;3081;50.584;7.032;2023-05-23T10:52:38;14.83;;;8.37;;
6101;SDS011;3081;50.584;7.032;2023-05-23T10:55:11;22.50;;;11.37;;
6101;SDS011;3081;50.584;7.032;2023-05-23T10:57:39;32.73;;;10.03;;
6101;SDS011;3081;50.584;7.032;2023-05-23T11:00:11;22.77;;;12.27;;
6101;SDS011;3081;50.584;7.032;2023-05-23T11:02:45;19.33;;;10.73;;
6101;SDS011;3081;50.584;7.032;2023-05-23T11:05:20;21.50;;;11.30;;
6101;SDS011;3081;50.584;7.032;2023-05-23T11:13:23;15.30;;;8.90;;
6101;SDS011;3081;50.584;7.032;2023-05-23T11:15:50;18.93;;;11.50;;
6101;SDS011;3081;50.584;7.032;2023-05-23T11:18:21;24.43;;;10.47;;
6101;SDS011;3081;50.584;7.032;2023-05-23T11:20:53;19.93;;;9.30;;
6101;SDS011;3081;50.584;7.032;2023-05-23T11:23:20;21.83;;;11.87;;
6101;SDS011;3081;50.584;7.032;2023-05-23T11:25:48;19.57;;;10.77;;
6101;SDS011;3081;50.584;7.032;2023-05-23T11:28:16;22.60;;;9.47;;
6101;SDS011;3081;50.584;7.032;2023-05-23T11:30:43;20.90;;;10.33;;
6101;SDS011;3081;50.584;7.032;2023-05-23T11:33:13;20.27;;;12.23;;
6101;SDS011;3081;50.584;7.032;2023-05-23T11:35:41;25.77;;;9.67;;
6101;SDS011;3081;50.584;7.032;2023-05-23T11:38:10;19.10;;;7.20;;
6101;SDS011;3081;50.584;7.032;2023-05-23T11:40:37;24.23;;;14.07;;
6101;SDS011;3081;50.584;7.032;2023-05-23T11:43:06;20.80;;;11.97;;
6101;SDS011;3081;50.584;7.032;2023-05-23T11:45:34;20.07;;;10.03;;
6101;SDS011;3081;50.584;7.032;2023-05-23T11:48:05;29.80;;;13.43;;
6101;SDS011;3081;50.584;7.032;2023-05-23T11:50:33;18.37;;;8.40;;
6101;SDS011;3081;50.584;7.032;2023-05-23T11:53:09;25.70;;;11.93;;
6101;SDS011;3081;50.584;7.032;2023-05-23T11:55:38;26.97;;;15.90;;
6101;SDS011;3081;50.584;7.032;2023-05-23T11:58:05;28.80;;;15.40;;
6101;SDS011;3081;50.584;7.032;2023-05-23T12:00:32;23.60;;;13.50;;
6101;SDS011;3081;50.584;7.032;2023-05-23T12:03:02;20.77;;;10.20;;
6101;SDS011;3081;50.584;7.032;2023-05-23T12:05:32;25.93;;;14.73;;
6101;SDS011;3081;50.584;7.032;2023-05-23T12:07:59;26.37;;;14.80;;
6101;SDS011;3081;50.584;7.032;2023-05-23T12:10:27;25.47;;;10.20;;
6101;SDS011;3081;50.584;7.032;2023-05-23T12:12:54;24.97;;;14.40;;
6101;SDS011;3081;50.584;7.032;2023-05-23T12:15:24;23.80;;;14.37;;
6101;SDS011;3081;50.584;7.032;2023-05-23T12:17:52;20.20;;;8.37;;
6101;SDS011;3081;50.584;7.032;2023-05-23T12:20:19;18.67;;;9.73;;
6101;SDS011;3081;50.584;7.032;2023-05-23T12:22:46;21.70;;;11.17;;
6101;SDS011;3081;50.584;7.032;2023-05-23T12:25:13;18.80;;;9.40;;
6101;SDS011;3081;50.584;7.032;2023-05-23T12:27:42;18.23;;;8.47;;
6101;SDS011;3081;50.584;7.032;2023-05-23T12:30:09;16.40;;;7.33;;
6101;SDS011;3081;50.584;7.032;2023-05-23T12:32:39;17.80;;;8.87;;
6101;SDS011;3081;50.584;7.032;2023-05-23T12:35:07;17.83;;;9.40;;
6101;SDS011;3081;50.584;7.032;2023-05-23T12:37:37;16.13;;;7.50;;
6101;SDS011;3081;50.584;7.032;2023-05-23T12:40:08;18.93;;;9.90;;
6101;SDS011;3081;50.584;7.032;2023-05-23T12:42:49;19.57;;;8.73;;
6101;SDS011;3081;50.584;7.032;2023-05-23T12:45:17;14.50;;;7.07;;
6101;SDS011;3081;50.584;7.032;2023-05-23T12:47:44;11.67;;;4.60;;
6101;SDS011;3081;50.584;7.032;2023-05-23T12:50:11;10.47;;;3.60;;
6101;SDS011;3081;50.584;7.032;2023-05-23T12:52:38;11.40;;;3.60;;
6101;SDS011;3081;50.584;7.032;2023-05-23T12:55:05;10.37;;;3.87;;
6101;SDS011;3081;50.584;7.032;2023-05-23T12:57:33;11.20;;;3.47;;
6101;SDS011;3081;50.584;7.032;2023-05-23T13:00:02;10.23;;;3.90;;
6101;SDS011;3081;50.584;7.032;2023-05-23T13:02:30;11.03;;;4.50;;
6101;SDS011;3081;50.584;7.032;2023-05-23T13:04:57;15.90;;;5.20;;
6101;SDS011;3081;50.584;7.032;2023-05-23T13:07:24;12.30;;;4.80;;
6101;SDS011;3081;50.584;7.032;2023-05-23T13:09:51;12.07;;;4.40;;
6101;SDS011;3081;50.584;7.032;2023-05-23T13:12:18;13.50;;;4.60;;
6101;SDS011;3081;50.584;7.032;2023-05-23T13:14:45;13.53;;;4.50;;
6101;SDS011;3081;50.584;7.032;2023-05-23T13:17:13;10.73;;;4.00;;
6101;SDS011;3081;50.584;7.032;2023-05-23T13:19:40;10.43;;;3.67;;
6101;SDS011;3081;50.584;7.032;2023-05-23T13:22:07;13.70;;;4.93;;
6101;SDS011;3081;50.584;7.032;2023-05-23T13:24:35;11.23;;;3.90;;
6101;SDS011;3081;50.584;7.032;2023-05-23T13:27:02;15.10;;;5.57;;
6101;SDS011;3081;50.584;7.032;2023-05-23T13:29:30;12.93;;;4.53;;
6101;SDS011;3081;50.584;7.032;2023-05-23T13:31:57;17.60;;;6.10;;
6101;SDS011;3081;50.584;7.032;2023-05-23T13:34:26;13.47;;;5.10;;
6101;SDS011;3081;50.584;7.032;2023-05-23T13:36:53;15.70;;;5.13;;
6101;SDS011;3081;50.584;7.032;2023-05-23T13:39:20;13.73;;;5.43;;
6101;SDS011;3081;50.584;7.032;2023-05-23T13:41:47;20.17;;;5.53;;
6101;SDS011;3081;50.584;7.032;2023-05-23T13:44:14;14.63;;;5.13;;
6101;SDS011;3081;50.584;7.032;2023-05-23T13:46:41;12.67;;;4.83;;
6101;SDS011;3081;50.584;7.032;2023-05-23T13:49:08;11.63;;;4.60;;
6101;SDS011;3081;50.584;7.032;2023-05-23T13:51:36;14.60;;;5.13;;
6101;SDS011;3081;50.584;7.032;2023-05-23T13:54:04;13.40;;;5.33;;
6101;SDS011;3081;50.584;7.032;2023-05-23T13:56:31;13.73;;;4.57;;
6101;SDS011;3081;50.584;7.032;2023-05-23T13:58:58;11.33;;;5.00;;
6101;SDS011;3081;50.584;7.032;2023-05-23T14:01:26;11.87;;;4.80;;
6101;SDS011;3081;50.584;7.032;2023-05-23T14:03:53;10.93;;;4.30;;
6101;SDS011;3081;50.584;7.032;2023-05-23T14:06:20;12.70;;;4.50;;
6101;SDS011;3081;50.584;7.032;2023-05-23T14:08:48;14.00;;;4.93;;
6101;SDS011;3081;50.584;7.032;2023-05-23T14:11:15;11.90;;;4.00;;
6101;SDS011;3081;50.584;7.032;2023-05-23T14:13:42;11.27;;;3.83;;
6101;SDS011;3081;50.584;7.032;2023-05-23T14:16:10;9.93;;;2.63;;
6101;SDS011;3081;50.584;7.032;2023-05-23T14:18:37;11.73;;;3.87;;
6101;SDS011;3081;50.584;7.032;2023-05-23T14:21:04;11.00;;;4.10;;
6101;SDS011;3081;50.584;7.032;2023-05-23T14:23:31;11.37;;;3.30;;
6101;SDS011;3081;50.584;7.032;2023-05-23T14:25:59;11.73;;;3.70;;
6101;SDS011;3081;50.584;7.032;2023-05-23T14:28:26;10.60;;;4.27;;
6101;SDS011;3081;50.584;7.032;2023-05-23T14:30:53;17.40;;;3.93;;
6101;SDS011;3081;50.584;7.032;2023-05-23T14:33:20;13.73;;;2.70;;
6101;SDS011;3081;50.584;7.032;2023-05-23T14:35:47;8.70;;;3.07;;
6101;SDS011;3081;50.584;7.032;2023-05-23T14:38:15;9.93;;;3.20;;
6101;SDS011;3081;50.584;7.032;2023-05-23T14:40:42;11.07;;;4.30;;
6101;SDS011;3081;50.584;7.032;2023-05-23T14:43:10;9.43;;;3.40;;
6101;SDS011;3081;50.584;7.032;2023-05-23T14:45:37;11.00;;;3.70;;
6101;SDS011;3081;50.584;7.032;2023-05-23T14:48:04;11.13;;;3.30;;
6101;SDS011;3081;50.584;7.032;2023-05-23T14:50:31;10.70;;;3.00;;
6101;SDS011;3081;50.584;7.032;2023-05-23T14:52:58;11.33;;;3.20;;
6101;SDS011;3081;50.584;7.032;2023-05-23T14:55:25;9.03;;;3.10;;
6101;SDS011;3081;50.584;7.032;2023-05-23T14:57:52;11.37;;;3.80;;
6101;SDS011;3081;50.584;7.032;2023-05-23T15:00:20;9.57;;;3.00;;
6101;SDS011;3081;50.584;7.032;2023-05-23T15:02:47;7.03;;;2.60;;
6101;SDS011;3081;50.584;7.032;2023-05-23T15:05:14;11.03;;;2.90;;
6101;SDS011;3081;50.584;7.032;2023-05-23T15:07:41;10.50;;;2.93;;
6101;SDS011;3081;50.584;7.032;2023-05-23T15:10:09;13.97;;;3.70;;
6101;SDS011;3081;50.584;7.032;2023-05-23T15:12:36;12.63;;;3.50;;